Time;durP1;ratioP1;P1;durP2;ratioP2;P2;SDS_P1;SDS_P2;PMS_P1;PMS_P2;Temp;Humidity;BMP_temperature;BMP_pressure;BME280_temperature;BME280_humidity;BME280_pressure;Samples;Min_cycle;Max_cycle;Signal;HPM_P1;HPM_P2
2021/06/19 00:00:08;;;;;;;14.48;6.88;;;;;;;19.95;100.00;95602.50;1030639;28;20027;-71
2021/06/19 00:00:39;;;;;;;9.27;7.03;;;;;;;19.99;100.00;95610.63;1028137;28;20629;-72
2021/06/19 00:01:10;;;;;;;10.57;7.13;;;;;;;19.96;100.00;95609.38;1018639;29;20119;-72
2021/06/19 00:01:43;;;;;;;8.65;6.85;;;;;;;19.95;100.00;95612.34;1019654;29;20055;-72
2021/06/19 00:02:13;;;;;;;10.60;6.65;;;;;;;19.93;100.00;95610.03;1023103;28;20019;-72
2021/06/19 00:02:43;;;;;;;8.23;6.25;;;;;;;19.96;100.00;95609.38;1029634;28;20030;-71
2021/06/19 00:03:14;;;;;;;9.50;7.03;;;;;;;20.02;100.00;95615.28;1037960;28;20041;-71
2021/06/19 00:03:44;;;;;;;9.68;7.00;;;;;;;20.04;100.00;95605.06;1034677;28;20066;-72
2021/06/19 00:04:15;;;;;;;8.23;7.38;;;;;;;20.04;100.00;95620.28;1034249;28;20037;-71
2021/06/19 00:04:45;;;;;;;8.82;6.53;;;;;;;20.04;100.00;95612.28;1034641;28;20029;-71
2021/06/19 00:05:16;;;;;;;8.05;6.82;;;;;;;19.98;100.00;95606.38;1030574;28;20030;-72
2021/06/19 00:05:46;;;;;;;9.65;7.25;;;;;;;20.02;100.00;95617.97;1034456;28;20022;-71
2021/06/19 00:06:17;;;;;;;17.02;7.35;;;;;;;20.04;100.00;95615.72;1038854;28;20071;-72
2021/06/19 00:06:47;;;;;;;11.68;7.60;;;;;;;20.07;100.00;95611.63;1038641;28;20025;-70
2021/06/19 00:07:18;;;;;;;8.30;7.28;;;;;;;20.05;100.00;95619.94;1038749;28;20037;-71
2021/06/19 00:07:48;;;;;;;11.07;7.68;;;;;;;20.04;100.00;95614.94;1034441;28;20641;-72
2021/06/19 00:08:22;;;;;;;9.18;7.72;;;;;;;20.07;100.00;95609.75;1026762;28;20526;-71
2021/06/19 00:08:55;;;;;;;8.98;7.97;;;;;;;20.08;100.00;95619.28;1030527;28;20916;-72
2021/06/19 00:09:29;;;;;;;12.15;7.85;;;;;;;20.10;100.00;95621.66;1030438;28;20038;-71
2021/06/19 00:09:59;;;;;;;9.13;7.30;;;;;;;20.12;100.00;95624.75;1031992;28;20026;-72
2021/06/19 00:10:29;;;;;;;14.63;8.73;;;;;;;20.11;100.00;95621.31;1036066;28;20022;-72
2021/06/19 00:11:00;;;;;;;14.55;8.38;;;;;;;20.13;100.00;95623.66;1039008;28;20029;-72
2021/06/19 00:11:30;;;;;;;9.23;7.38;;;;;;;20.12;100.00;95625.56;1043073;28;20486;-72
2021/06/19 00:12:01;;;;;;;11.88;7.82;;;;;;;20.09;100.00;95622.75;1042965;28;20059;-73
2021/06/19 00:12:31;;;;;;;8.88;7.75;;;;;;;20.11;100.00;95626.63;1030528;28;20065;-72
2021/06/19 00:13:02;;;;;;;11.13;8.40;;;;;;;20.14;100.00;95631.31;1029322;28;20026;-71
2021/06/19 00:13:32;;;;;;;9.75;7.72;;;;;;;20.16;100.00;95633.66;1030478;28;20022;-71
2021/06/19 00:14:03;;;;;;;9.13;7.82;;;;;;;20.12;100.00;95628.22;1030819;28;20033;-72
2021/06/19 00:14:33;;;;;;;10.27;8.48;;;;;;;20.17;100.00;95641.31;1038665;28;20539;-72
2021/06/19 00:15:08;;;;;;;16.63;8.98;;;;;;;20.32;100.00;95637.28;1030501;28;20023;-71
2021/06/19 00:15:38;;;;;;;12.25;9.50;;;;;;;20.36;100.00;95643.53;1018783;28;20028;-71
2021/06/19 00:16:09;;;;;;;12.10;8.60;;;;;;;20.42;100.00;95636.09;1018570;29;20482;-71
2021/06/19 00:16:39;;;;;;;11.18;8.55;;;;;;;20.43;100.00;95630.44;1022586;28;20083;-72
2021/06/19 00:17:10;;;;;;;16.42;8.65;;;;;;;20.43;100.00;95633.09;1018808;28;20027;-71
2021/06/19 00:17:40;;;;;;;12.43;9.07;;;;;;;20.46;100.00;95635.13;1030827;28;20049;-71
2021/06/19 00:18:11;;;;;;;11.60;9.45;;;;;;;20.45;100.00;95627.44;1025994;28;20023;-72
2021/06/19 00:18:41;;;;;;;10.40;9.00;;;;;;;20.56;100.00;95646.50;1026707;28;20041;-72
2021/06/19 00:19:12;;;;;;;12.75;8.98;;;;;;;20.61;100.00;95643.63;1026389;28;20456;-71
2021/06/19 00:19:42;;;;;;;13.27;9.63;;;;;;;20.61;100.00;95647.06;1027940;28;20030;-71
2021/06/19 00:20:16;;;;;;;10.93;9.60;;;;;;;20.64;100.00;95643.75;1030591;28;20081;-72
2021/06/19 00:20:47;;;;;;;15.10;8.75;;;;;;;20.59;100.00;95635.97;1032001;28;20030;-71
2021/06/19 00:21:17;;;;;;;16.02;9.60;;;;;;;20.65;100.00;95639.97;1033205;28;20099;-72
2021/06/19 00:21:48;;;;;;;11.88;8.88;;;;;;;20.70;100.00;95647.78;1034310;28;20036;-71
2021/06/19 00:22:18;;;;;;;11.38;8.55;;;;;;;20.69;100.00;95645.41;1034775;28;20092;-72
2021/06/19 00:22:49;;;;;;;15.00;9.10;;;;;;;20.70;100.00;95647.00;1034576;28;20018;-71
2021/06/19 00:23:22;;;;;;;12.95;8.82;;;;;;;20.61;100.00;95635.63;1027384;28;20023;-72
2021/06/19 00:23:53;;;;;;;11.02;9.15;;;;;;;20.76;100.00;95651.03;1030956;28;20019;-72
2021/06/19 00:24:23;;;;;;;11.00;8.43;;;;;;;20.82;100.00;95655.00;1030795;28;20026;-71
2021/06/19 00:24:53;;;;;;;11.50;8.63;;;;;;;20.80;100.00;95653.81;1030763;28;20027;-72
2021/06/19 00:25:25;;;;;;;9.32;8.38;;;;;;;20.79;100.00;95655.69;1031062;28;20038;-71
2021/06/19 00:25:58;;;;;;;10.65;8.98;;;;;;;20.77;100.00;95651.78;1030881;28;20498;-72
2021/06/19 00:26:28;;;;;;;10.15;8.55;;;;;;;20.76;100.00;95656.34;1037050;28;20022;-72
2021/06/19 00:26:59;;;;;;;18.98;8.90;;;;;;;20.76;100.00;95645.69;1026789;28;20019;-72
2021/06/19 00:27:30;;;;;;;9.73;8.23;;;;;;;20.72;100.00;95644.75;1026830;28;20427;-72
2021/06/19 00:28:03;;;;;;;10.38;8.32;;;;;;;20.75;100.00;95654.78;1031701;28;20026;-72
2021/06/19 00:28:34;;;;;;;11.98;8.55;;;;;;;20.73;100.00;95649.00;1030357;28;20454;-71
2021/06/19 00:29:04;;;;;;;13.52;9.10;;;;;;;20.66;100.00;95640.78;1030354;28;20039;-72
2021/06/19 00:29:35;;;;;;;15.77;9.30;;;;;;;20.73;100.00;95650.91;1027055;28;20085;-72
2021/06/19 00:30:07;;;;;;;13.90;8.60;;;;;;;20.71;100.00;95653.88;1030395;28;20035;-72
2021/06/19 00:30:38;;;;;;;13.07;8.57;;;;;;;20.70;100.00;95647.00;1030732;28;20062;-72
2021/06/19 00:31:08;;;;;;;12.43;8.50;;;;;;;20.68;100.00;95644.63;1030689;28;20026;-73
2021/06/19 00:31:39;;;;;;;13.43;9.20;;;;;;;20.68;100.00;95643.88;1028625;28;20050;-72
2021/06/19 00:32:09;;;;;;;12.38;9.00;;;;;;;20.62;100.00;95650.50;1034695;28;20018;-72
2021/06/19 00:32:40;;;;;;;12.60;8.77;;;;;;;20.63;100.00;95646.75;1030914;28;20015;-72
2021/06/19 00:33:10;;;;;;;10.00;8.63;;;;;;;20.57;100.00;95646.19;1032872;28;20021;-72
2021/06/19 00:33:41;;;;;;;9.50;8.40;;;;;;;20.60;100.00;95650.09;1030515;28;20424;-72
2021/06/19 00:34:14;;;;;;;11.73;8.68;;;;;;;20.59;100.00;95651.97;1030386;28;20019;-69
2021/06/19 00:34:45;;;;;;;13.40;9.35;;;;;;;20.56;100.00;95657.19;1031153;28;20061;-70
2021/06/19 00:35:15;;;;;;;9.77;8.77;;;;;;;20.56;100.00;95657.19;1030894;28;20025;-72
2021/06/19 00:35:46;;;;;;;10.73;8.98;;;;;;;20.47;100.00;95659.88;1026560;28;20077;-71
2021/06/19 00:36:16;;;;;;;13.48;9.55;;;;;;;20.51;100.00;95663.47;1022728;28;20031;-72
2021/06/19 00:36:47;;;;;;;11.85;9.18;;;;;;;20.42;100.00;95652.88;1024844;28;20098;-71
2021/06/19 00:37:17;;;;;;;12.15;8.85;;;;;;;20.46;100.00;95663.66;1026752;28;20027;-71
2021/06/19 00:37:48;;;;;;;16.10;9.10;;;;;;;20.45;100.00;95662.09;1026593;28;20019;-72
2021/06/19 00:38:18;;;;;;;13.43;9.68;;;;;;;20.40;100.00;95671.06;1023076;28;20020;-72
2021/06/19 00:38:49;;;;;;;10.68;9.15;;;;;;;20.39;100.00;95669.53;1026534;28;20019;-72
2021/06/19 00:39:19;;;;;;;8.93;8.02;;;;;;;20.38;100.00;95678.59;1030603;28;20069;-72
2021/06/19 00:39:50;;;;;;;10.52;8.95;;;;;;;20.39;100.00;95682.06;1030789;28;20042;-72
2021/06/19 00:40:20;;;;;;;12.27;8.68;;;;;;;20.34;100.00;95675.03;1041981;28;20025;-72
2021/06/19 00:40:51;;;;;;;14.77;9.20;;;;;;;20.35;100.00;95668.59;1038666;28;20113;-72
2021/06/19 00:41:23;;;;;;;10.13;9.07;;;;;;;20.34;100.00;95666.28;1034685;28;20408;-72
2021/06/19 00:41:53;;;;;;;13.68;8.80;;;;;;;20.31;100.00;95662.38;1034477;28;20791;-72
2021/06/19 00:42:24;;;;;;;18.92;9.13;;;;;;;20.34;100.00;95671.59;1035225;28;20029;-72
2021/06/19 00:42:58;;;;;;;13.52;8.98;;;;;;;20.28;100.00;95656.91;1038421;28;20041;-71
2021/06/19 00:43:29;;;;;;;15.07;8.30;;;;;;;20.34;100.00;95667.03;1038316;28;20025;-72
2021/06/19 00:43:59;;;;;;;13.95;8.32;;;;;;;20.32;100.00;95666.59;1038810;28;20438;-72
2021/06/19 00:44:30;;;;;;;15.02;9.10;;;;;;;20.29;100.00;95658.47;1039920;28;20021;-72
2021/06/19 00:45:00;;;;;;;8.95;8.05;;;;;;;20.34;100.00;95672.38;1035213;28;20018;-71
2021/06/19 00:45:32;;;;;;;10.90;8.27;;;;;;;20.31;100.00;95664.25;1035408;28;20026;-72
2021/06/19 00:46:05;;;;;;;9.85;8.43;;;;;;;20.34;100.00;95667.03;1027652;28;20031;-72
2021/06/19 00:46:36;;;;;;;12.90;8.73;;;;;;;20.28;100.00;95668.34;1031300;28;20037;-72
2021/06/19 00:47:06;;;;;;;11.52;8.48;;;;;;;20.33;100.00;95676.16;1030150;28;20023;-72
2021/06/19 00:47:38;;;;;;;10.02;8.57;;;;;;;20.26;100.00;95670.56;1031410;28;20018;-72
2021/06/19 00:48:10;;;;;;;10.95;8.70;;;;;;;20.34;100.00;95672.38;1031187;28;20113;-71
2021/06/19 00:48:40;;;;;;;10.13;9.10;;;;;;;20.33;100.00;95665.50;1035694;28;20022;-72
2021/06/19 00:49:10;;;;;;;11.02;9.00;;;;;;;20.38;100.00;95672.50;1039523;28;20018;-71
2021/06/19 00:49:41;;;;;;;10.32;8.75;;;;;;;20.38;100.00;95673.28;1035277;28;20024;-72
2021/06/19 00:50:12;;;;;;;10.60;8.45;;;;;;;20.42;100.00;95668.88;1030995;28;20065;-72
2021/06/19 00:50:43;;;;;;;11.63;8.68;;;;;;;20.40;100.00;95671.06;1027395;28;20034;-72
2021/06/19 00:51:13;;;;;;;14.85;9.23;;;;;;;20.35;100.00;95671.25;1027456;28;20428;-72
2021/06/19 00:51:47;;;;;;;10.88;8.90;;;;;;;20.30;100.00;95660.03;1027398;28;20042;-72
2021/06/19 00:52:17;;;;;;;12.85;9.05;;;;;;;20.38;100.00;95673.28;1030884;28;20566;-72
2021/06/19 00:52:48;;;;;;;12.82;8.98;;;;;;;20.34;100.00;95666.28;1035060;28;20034;-72
2021/06/19 00:53:18;;;;;;;12.05;9.02;;;;;;;20.35;100.00;95671.25;1026838;28;20046;-72
2021/06/19 00:53:49;;;;;;;14.07;8.45;;;;;;;20.30;100.00;95665.38;1026829;28;20030;-72
2021/06/19 00:54:19;;;;;;;11.32;8.77;;;;;;;20.32;100.00;95668.47;1031426;28;20053;-73
2021/06/19 00:54:50;;;;;;;10.35;8.23;;;;;;;20.31;100.00;95665.03;1026948;28;20065;-72
2021/06/19 00:55:21;;;;;;;11.95;7.97;;;;;;;20.28;100.00;95663.00;1022749;28;20038;-72
2021/06/19 00:55:51;;;;;;;12.50;8.63;;;;;;;20.27;100.00;95660.69;1019661;28;20028;-72
2021/06/19 00:56:21;;;;;;;11.07;8.05;;;;;;;20.32;100.00;95660.47;1023592;28;20031;-71
2021/06/19 00:56:52;;;;;;;10.23;7.70;;;;;;;20.31;100.00;95661.59;1027249;28;20015;-72
2021/06/19 00:57:22;;;;;;;10.68;8.07;;;;;;;20.29;100.00;95664.59;1026880;28;20018;-72
2021/06/19 00:57:53;;;;;;;11.82;8.60;;;;;;;20.30;100.00;95655.50;1028216;28;20023;-72
2021/06/19 00:58:23;;;;;;;9.93;8.13;;;;;;;20.28;100.00;95659.56;1031449;28;20038;-72
2021/06/19 00:58:54;;;;;;;9.00;7.88;;;;;;;20.27;100.00;95661.47;1028396;28;20116;-72
2021/06/19 00:59:24;;;;;;;15.95;8.63;;;;;;;20.27;100.00;95658.03;1027091;28;20046;-72
2021/06/19 00:59:56;;;;;;;9.52;7.68;;;;;;;20.18;100.00;95647.44;1031292;28;20058;-72
2021/06/19 01:00:30;;;;;;;10.77;8.10;;;;;;;20.16;100.00;95647.00;1035023;28;20013;-71
2021/06/19 01:01:00;;;;;;;9.77;8.05;;;;;;;20.17;100.00;95651.22;1035266;28;20064;-72
2021/06/19 01:01:32;;;;;;;10.25;7.80;;;;;;;20.16;100.00;95654.97;1031320;28;20445;-72
2021/06/19 01:02:03;;;;;;;14.82;8.40;;;;;;;20.13;100.00;95651.06;1031011;28;20022;-72
2021/06/19 01:02:34;;;;;;;10.63;8.02;;;;;;;20.15;100.00;95658.72;1023286;29;20098;-72
2021/06/19 01:03:04;;;;;;;9.25;7.30;;;;;;;20.15;100.00;95659.50;1022856;28;20039;-72
2021/06/19 01:03:34;;;;;;;13.90;7.60;;;;;;;20.14;100.00;95662.50;1027746;28;20054;-71
2021/06/19 01:04:05;;;;;;;11.50;7.55;;;;;;;20.17;100.00;95667.97;1034086;28;20014;-71
2021/06/19 01:04:36;;;;;;;10.70;7.30;;;;;;;20.10;100.00;95658.94;1035462;28;20065;-72
2021/06/19 01:05:08;;;;;;;10.55;6.93;;;;;;;20.13;100.00;95666.28;1026584;28;20040;-72
2021/06/19 01:05:38;;;;;;;10.45;7.97;;;;;;;20.14;100.00;95668.63;1025098;28;20059;-72
2021/06/19 01:06:08;;;;;;;10.48;7.68;;;;;;;20.17;100.00;95683.94;1027153;28;20035;-72
2021/06/19 01:06:39;;;;;;;11.20;7.50;;;;;;;20.16;100.00;95684.28;1027739;28;20631;-72
2021/06/19 01:07:09;;;;;;;11.65;8.30;;;;;;;20.11;100.00;95663.16;1027343;28;20038;-72
2021/06/19 01:07:40;;;;;;;11.13;8.43;;;;;;;20.16;100.00;95674.41;1031310;28;20077;-72
2021/06/19 01:08:10;;;;;;;9.82;8.27;;;;;;;20.16;100.00;95668.31;1027309;28;20038;-72
2021/06/19 01:08:41;;;;;;;9.38;7.95;;;;;;;20.15;100.00;95664.06;1027377;28;20078;-72
2021/06/19 01:09:11;;;;;;;10.48;8.43;;;;;;;20.15;100.00;95669.38;1026088;28;20758;-72
2021/06/19 01:09:42;;;;;;;12.05;7.93;;;;;;;20.15;100.00;95658.72;1031446;28;20026;-72
2021/06/19 01:10:12;;;;;;;14.88;8.10;;;;;;;20.12;100.00;95660.19;1031108;28;20038;-72
2021/06/19 01:10:43;;;;;;;8.82;7.82;;;;;;;20.11;100.00;95657.81;1026612;28;20026;-73
2021/06/19 01:11:13;;;;;;;12.27;8.00;;;;;;;20.08;100.00;95647.81;1022836;29;20069;-71
2021/06/19 01:11:44;;;;;;;9.13;7.70;;;;;;;20.07;100.00;95651.59;1027253;28;20119;-72
2021/06/19 01:12:22;;;;;;;10.35;7.55;;;;;;;20.06;100.00;95655.38;1031235;28;20031;-72
2021/06/19 01:12:52;;;;;;;15.45;7.60;;;;;;;19.98;100.00;95639.09;1026786;28;20111;-70
2021/06/19 01:13:23;;;;;;;10.88;7.47;;;;;;;20.05;100.00;95649.25;1023925;28;20027;-72
2021/06/19 01:13:53;;;;;;;10.00;7.90;;;;;;;20.02;100.00;95648.03;1024369;28;20023;-72
2021/06/19 01:14:24;;;;;;;13.13;7.70;;;;;;;19.98;100.00;95648.97;1028122;28;20452;-72
2021/06/19 01:14:54;;;;;;;10.65;7.85;;;;;;;19.95;100.00;95645.09;1026774;28;20519;-72
2021/06/19 01:15:25;;;;;;;11.50;7.38;;;;;;;19.99;100.00;95647.91;1026934;28;20058;-71
2021/06/19 01:15:57;;;;;;;7.82;7.03;;;;;;;19.97;100.00;95653.53;1033881;28;20033;-72
2021/06/19 01:16:28;;;;;;;8.77;7.03;;;;;;;19.96;100.00;95649.31;1030907;28;20031;-72
2021/06/19 01:17:01;;;;;;;9.55;7.00;;;;;;;19.99;100.00;95671.88;1019330;29;20024;-72
2021/06/19 01:17:31;;;;;;;10.13;7.07;;;;;;;20.00;100.00;95673.44;1020742;28;20055;-72
2021/06/19 01:18:02;;;;;;;9.32;6.78;;;;;;;20.00;100.00;95674.19;1023823;28;20450;-72
2021/06/19 01:18:32;;;;;;;14.13;7.20;;;;;;;20.00;100.00;95678.75;1028630;28;20405;-72
2021/06/19 01:19:03;;;;;;;13.10;7.30;;;;;;;20.00;100.00;95679.53;1039242;28;20026;-72
2021/06/19 01:19:33;;;;;;;8.25;7.45;;;;;;;19.99;100.00;95685.97;1039136;28;20025;-72
2021/06/19 01:20:08;;;;;;;9.20;7.18;;;;;;;20.01;100.00;95693.63;1039198;28;20475;-72
2021/06/19 01:20:39;;;;;;;9.15;7.40;;;;;;;20.03;100.00;95680.78;1039385;28;20033;-72
2021/06/19 01:21:16;;;;;;;10.05;7.80;;;;;;;20.02;100.00;95676.56;1035103;28;20030;-72
2021/06/19 01:21:50;;;;;;;12.07;7.93;;;;;;;20.04;100.00;95673.56;1034695;28;20025;-72
2021/06/19 01:22:21;;;;;;;10.18;7.97;;;;;;;20.02;100.00;95673.88;1035323;28;20061;-72
2021/06/19 01:22:54;;;;;;;10.02;8.30;;;;;;;19.97;100.00;95658.09;1032180;28;20030;-72
2021/06/19 01:23:24;;;;;;;12.32;7.93;;;;;;;19.98;100.00;95659.63;1030662;28;20019;-71
2021/06/19 01:23:55;;;;;;;10.85;7.90;;;;;;;20.01;100.00;95667.75;1030990;28;20029;-71
2021/06/19 01:24:26;;;;;;;11.57;7.70;;;;;;;19.99;100.00;95669.22;1027573;28;20400;-72
2021/06/19 01:25:04;;;;;;;9.00;7.88;;;;;;;19.93;100.00;95663.28;1028580;28;20038;-72
2021/06/19 01:25:36;;;;;;;11.43;7.40;;;;;;;19.95;100.00;95671.75;1028236;28;20062;-72
2021/06/19 01:26:07;;;;;;;11.48;7.80;;;;;;;19.92;100.00;95655.59;1025773;28;20031;-72
2021/06/19 01:26:37;;;;;;;9.27;7.45;;;;;;;19.96;100.00;95667.97;1026957;28;20031;-72
2021/06/19 01:27:08;;;;;;;9.00;7.78;;;;;;;19.93;100.00;95673.94;1027182;28;20052;-72
2021/06/19 01:27:38;;;;;;;9.68;7.32;;;;;;;19.88;100.00;95660.81;1024231;28;20059;-72
2021/06/19 01:28:11;;;;;;;9.90;8.02;;;;;;;19.88;100.00;95666.13;1027007;28;20090;-72
2021/06/19 01:28:44;;;;;;;10.02;7.30;;;;;;;19.93;100.00;95681.94;1030875;28;20030;-72
2021/06/19 01:29:15;;;;;;;8.40;7.55;;;;;;;19.84;100.00;95667.09;1031990;28;20034;-71
2021/06/19 01:29:45;;;;;;;11.18;7.90;;;;;;;19.88;100.00;95676.78;1032612;28;20034;-72
2021/06/19 01:30:23;;;;;;;13.48;7.88;;;;;;;19.85;100.00;95682.78;1035019;28;20033;-72
2021/06/19 01:30:53;;;;;;;9.30;7.55;;;;;;;19.83;100.00;95684.19;1031303;28;20019;-72
2021/06/19 01:31:24;;;;;;;13.73;8.00;;;;;;;19.78;100.00;95677.16;1038951;28;20030;-71
2021/06/19 01:31:54;;;;;;;11.68;7.35;;;;;;;19.83;100.00;95689.53;1035340;28;20061;-72
2021/06/19 01:32:26;;;;;;;8.00;7.20;;;;;;;19.74;100.00;95677.03;1027162;28;20026;-72
2021/06/19 01:32:57;;;;;;;10.30;7.43;;;;;;;19.82;100.00;95688.75;1023072;28;20019;-72
2021/06/19 01:33:28;;;;;;;12.13;7.53;;;;;;;19.81;100.00;95689.81;1026990;28;20455;-72
2021/06/19 01:33:58;;;;;;;8.73;6.93;;;;;;;19.82;100.00;95679.94;1031112;28;20068;-72
2021/06/19 01:34:29;;;;;;;14.73;7.95;;;;;;;19.81;100.00;95681.06;1031434;28;20038;-72
2021/06/19 01:34:59;;;;;;;9.00;7.90;;;;;;;19.76;100.00;95671.38;1039192;28;20036;-72
2021/06/19 01:35:30;;;;;;;9.82;7.72;;;;;;;19.81;100.00;95684.50;1035180;28;20575;-72
2021/06/19 01:36:04;;;;;;;11.52;7.82;;;;;;;19.79;100.00;95676.06;1035258;28;20408;-72
2021/06/19 01:36:35;;;;;;;10.43;7.57;;;;;;;19.75;100.00;95673.28;1030988;28;20866;-72
2021/06/19 01:37:08;;;;;;;9.45;7.95;;;;;;;19.76;100.00;95672.16;1026674;28;20031;-72
2021/06/19 01:37:46;;;;;;;9.35;8.02;;;;;;;19.75;100.00;95673.28;1024681;28;20050;-72
2021/06/19 01:38:16;;;;;;;10.50;7.55;;;;;;;19.74;100.00;95679.69;1027608;28;20654;-72
2021/06/19 01:38:48;;;;;;;10.85;7.80;;;;;;;19.71;100.00;95674.22;1026887;28;20117;-71
2021/06/19 01:39:19;;;;;;;11.48;7.63;;;;;;;19.69;100.00;95668.47;1023115;29;20154;-72
2021/06/19 01:39:49;;;;;;;9.95;7.20;;;;;;;19.74;100.00;95684.25;1023181;29;20575;-72
2021/06/19 01:40:22;;;;;;;11.35;7.22;;;;;;;19.71;100.00;95676.88;1021134;28;20448;-72
2021/06/19 01:40:52;;;;;;;14.10;7.22;;;;;;;19.75;100.00;95683.13;1024293;28;20121;-71
2021/06/19 01:41:24;;;;;;;8.52;7.13;;;;;;;19.74;100.00;95684.25;1035957;28;20030;-72
2021/06/19 01:41:54;;;;;;;10.10;7.55;;;;;;;19.73;100.00;95685.34;1044099;28;20451;-72
2021/06/19 01:42:25;;;;;;;8.73;7.28;;;;;;;19.70;100.00;95680.66;1034936;28;20025;-71
2021/06/19 01:42:56;;;;;;;10.20;7.47;;;;;;;19.65;100.00;95673.66;1030728;28;20632;-72
2021/06/19 01:43:26;;;;;;;10.55;7.78;;;;;;;19.67;100.00;95675.97;1025920;28;20418;-71
2021/06/19 01:44:00;;;;;;;13.77;7.65;;;;;;;19.63;100.00;95667.84;1020999;28;20038;-71
2021/06/19 01:44:30;;;;;;;14.00;8.35;;;;;;;19.71;100.00;95674.22;1020375;29;20031;-70
2021/06/19 01:45:01;;;;;;;9.18;7.75;;;;;;;19.65;100.00;95668.31;1026573;28;20026;-71
2021/06/19 01:45:33;;;;;;;9.68;8.05;;;;;;;19.67;100.00;95675.97;1029827;28;20041;-71
2021/06/19 01:46:03;;;;;;;16.48;7.78;;;;;;;19.63;100.00;95661.72;1027428;28;20046;-71
2021/06/19 01:46:35;;;;;;;9.55;6.97;;;;;;;19.65;100.00;95673.66;1031514;28;20077;-71
2021/06/19 01:47:06;;;;;;;14.65;7.80;;;;;;;19.59;100.00;95661.59;1022410;29;20122;-71
2021/06/19 01:47:39;;;;;;;9.73;7.13;;;;;;;19.64;100.00;95668.63;1039411;28;20459;-72
2021/06/19 01:48:09;;;;;;;12.65;7.68;;;;;;;19.63;100.00;95675.84;1039228;28;20029;-72
2021/06/19 01:48:40;;;;;;;8.07;6.80;;;;;;;19.41;100.00;95636.94;1039045;28;20465;-72
2021/06/19 01:49:10;;;;;;;9.13;7.45;;;;;;;19.59;100.00;95668.81;1031123;28;20054;-72
2021/06/19 01:49:41;;;;;;;10.48;7.88;;;;;;;19.63;100.00;95675.84;1027326;28;20077;-72
2021/06/19 01:50:14;;;;;;;10.00;7.50;;;;;;;19.63;100.00;95675.84;1026212;28;20079;-71
2021/06/19 01:50:44;;;;;;;11.13;7.60;;;;;;;19.60;100.00;95665.81;1026943;28;20496;-72
2021/06/19 01:51:15;;;;;;;7.80;6.97;;;;;;;19.66;100.00;95675.22;1035222;28;20030;-72
2021/06/19 01:51:45;;;;;;;12.73;7.40;;;;;;;19.65;100.00;95673.66;1035272;28;20025;-71
2021/06/19 01:52:18;;;;;;;12.00;7.18;;;;;;;19.61;100.00;95671.91;1037301;28;20041;-71
2021/06/19 01:52:52;;;;;;;9.32;7.10;;;;;;;19.68;100.00;95672.22;1038789;28;20498;-72
2021/06/19 01:53:22;;;;;;;10.60;7.20;;;;;;;19.62;100.00;95668.94;1030618;28;20022;-72
2021/06/19 01:53:53;;;;;;;11.18;7.50;;;;;;;19.69;100.00;95679.13;1033853;28;20398;-71
2021/06/19 01:54:23;;;;;;;9.48;6.65;;;;;;;19.73;100.00;95672.81;1035764;28;20065;-72
2021/06/19 01:54:54;;;;;;;8.43;7.53;;;;;;;19.66;100.00;95663.78;1031465;28;20042;-72
2021/06/19 01:55:24;;;;;;;9.60;6.88;;;;;;;19.71;100.00;95674.22;1030397;28;20030;-71
2021/06/19 01:55:54;;;;;;;14.00;7.40;;;;;;;19.70;100.00;95670.00;1026561;28;20030;-72
2021/06/19 01:56:25;;;;;;;12.38;7.18;;;;;;;19.64;100.00;95665.97;1027073;28;20785;-71
2021/06/19 01:56:55;;;;;;;10.85;6.75;;;;;;;19.70;100.00;95675.34;1023183;28;20571;-72
2021/06/19 01:57:26;;;;;;;11.85;6.75;;;;;;;19.70;100.00;95676.13;1027974;28;20404;-72
2021/06/19 01:58:00;;;;;;;11.27;7.07;;;;;;;19.71;100.00;95671.56;1027014;28;20344;-72
2021/06/19 01:58:31;;;;;;;10.82;7.05;;;;;;;19.70;100.00;95670.00;1027544;28;20031;-72
2021/06/19 01:59:01;;;;;;;10.38;7.15;;;;;;;19.69;100.00;95671.13;1021455;28;20027;-72
2021/06/19 01:59:32;;;;;;;10.55;7.80;;;;;;;19.67;100.00;95668.75;1022925;29;20453;-72
2021/06/19 02:00:17;;;;;;;10.75;7.18;;;;;;;19.69;100.00;95671.91;1027175;28;20050;-72
2021/06/19 02:00:47;;;;;;;11.63;7.10;;;;;;;19.68;100.00;95665.00;1026705;28;20133;-71
2021/06/19 02:01:18;;;;;;;8.55;6.88;;;;;;;19.70;100.00;95664.69;1028971;28;20119;-72
2021/06/19 02:01:48;;;;;;;11.27;6.78;;;;;;;19.70;100.00;95662.81;1033240;28;20416;-72
2021/06/19 02:02:19;;;;;;;7.72;6.68;;;;;;;19.69;100.00;95671.13;1027478;28;20027;-72
2021/06/19 02:02:50;;;;;;;8.27;6.40;;;;;;;19.69;100.00;95663.91;1034611;28;20176;-72
2021/06/19 02:03:20;;;;;;;12.68;7.47;;;;;;;19.72;100.00;95657.16;1026293;28;20513;-72
2021/06/19 02:03:51;;;;;;;12.25;7.57;;;;;;;19.76;100.00;95660.75;1025791;28;20042;-72
2021/06/19 02:04:22;;;;;;;10.68;6.82;;;;;;;19.77;100.00;95659.63;1026679;28;20035;-72
2021/06/19 02:04:52;;;;;;;9.88;6.40;;;;;;;19.81;100.00;95665.88;1031101;28;20041;-71
2021/06/19 02:05:23;;;;;;;10.57;7.07;;;;;;;19.77;100.00;95644.44;1031096;28;20412;-72
2021/06/19 02:05:53;;;;;;;9.02;6.45;;;;;;;19.89;100.00;95657.06;1031021;28;20404;-72
2021/06/19 02:06:24;;;;;;;10.07;6.57;;;;;;;19.90;100.00;95652.50;1035218;28;20034;-71
2021/06/19 02:06:54;;;;;;;7.15;6.32;;;;;;;19.91;100.00;95652.16;1035233;28;20022;-73
2021/06/19 02:07:27;;;;;;;8.98;6.70;;;;;;;19.99;100.00;95662.00;1034728;28;20037;-71
2021/06/19 02:07:59;;;;;;;14.77;6.63;;;;;;;19.98;100.00;95647.09;1039022;28;20018;-72
2021/06/19 02:08:29;;;;;;;8.15;6.57;;;;;;;20.09;100.00;95658.16;1031020;28;20451;-73
2021/06/19 02:09:07;;;;;;;8.77;6.35;;;;;;;20.06;100.00;95655.38;1031001;28;20015;-71
2021/06/19 02:09:38;;;;;;;9.52;6.63;;;;;;;20.11;100.00;95663.16;1032133;28;20026;-72
2021/06/19 02:10:08;;;;;;;8.48;6.45;;;;;;;20.09;100.00;95654.72;1037153;28;20029;-71
2021/06/19 02:10:41;;;;;;;7.53;6.10;;;;;;;20.08;100.00;95658.47;1039145;28;20120;-72
2021/06/19 02:11:11;;;;;;;7.32;6.30;;;;;;;20.12;100.00;95667.38;1030846;28;20563;-72
2021/06/19 02:11:42;;;;;;;9.05;6.40;;;;;;;20.12;100.00;95665.50;1035034;28;20022;-72
2021/06/19 02:12:12;;;;;;;9.80;6.25;;;;;;;20.13;100.00;95674.28;1031381;28;20101;-72
2021/06/19 02:12:43;;;;;;;9.90;6.55;;;;;;;20.12;100.00;95660.19;1035525;28;20018;-70
2021/06/19 02:13:14;;;;;;;8.70;6.22;;;;;;;20.09;100.00;95665.38;1038126;28;20137;-72
2021/06/19 02:13:44;;;;;;;9.57;6.60;;;;;;;20.14;100.00;95670.50;1035049;28;20028;-72
2021/06/19 02:14:16;;;;;;;8.90;6.53;;;;;;;20.11;100.00;95668.47;1035071;28;20101;-72
2021/06/19 02:14:46;;;;;;;9.27;6.60;;;;;;;20.10;100.00;95669.59;1022844;29;20094;-71
2021/06/19 02:15:17;;;;;;;12.35;7.03;;;;;;;20.09;100.00;95681.38;1026976;28;20093;-72
2021/06/19 02:15:47;;;;;;;8.75;6.30;;;;;;;20.08;100.00;95679.78;1025316;28;20114;-72
2021/06/19 02:16:20;;;;;;;7.80;6.53;;;;;;;20.06;100.00;95676.69;1022938;28;20015;-70
2021/06/19 02:16:51;;;;;;;9.77;6.78;;;;;;;20.05;100.00;95680.44;1027363;28;20034;-72
2021/06/19 02:17:21;;;;;;;7.93;6.25;;;;;;;20.04;100.00;95684.22;1023844;28;20067;-72
2021/06/19 02:17:54;;;;;;;11.77;6.00;;;;;;;20.01;100.00;95681.06;1031299;28;20061;-72
2021/06/19 02:18:25;;;;;;;9.23;6.18;;;;;;;19.99;100.00;95683.31;1028008;28;20026;-72
2021/06/19 02:18:56;;;;;;;11.55;6.30;;;;;;;19.99;100.00;95691.28;1024063;28;20826;-72
2021/06/19 02:19:29;;;;;;;11.15;7.00;;;;;;;19.99;100.00;95691.28;1026282;28;20031;-72
2021/06/19 02:19:59;;;;;;;8.93;6.70;;;;;;;19.99;100.00;95696.63;1025044;28;20031;-72
2021/06/19 02:20:30;;;;;;;9.82;6.65;;;;;;;19.97;100.00;95693.50;1027407;28;20027;-72
2021/06/19 02:21:00;;;;;;;10.95;7.00;;;;;;;19.93;100.00;95684.59;1027697;28;20023;-72
2021/06/19 02:21:31;;;;;;;7.55;6.65;;;;;;;19.86;100.00;95684.31;1030541;28;20026;-72
2021/06/19 02:22:01;;;;;;;9.13;6.75;;;;;;;19.90;100.00;95687.91;1027030;28;20023;-72
2021/06/19 02:22:33;;;;;;;8.63;7.10;;;;;;;19.89;100.00;95693.56;1026913;28;20134;-72
2021/06/19 02:23:06;;;;;;;13.52;7.18;;;;;;;19.88;100.00;95687.44;1026986;28;20015;-71
2021/06/19 02:23:36;;;;;;;8.23;7.35;;;;;;;19.88;100.00;95689.31;1022837;29;20019;-72